VG45 weather

Medical College of Virginia Heliport
Richmond, Virginia, United States

Public forecast

Using degrees Fahrenheit for public forecast. Weather courtesy of forecast.io.

METAR (pilot weather report)

Closest report is Richmond International Airport, 6.2 nm (11.5 km) ESE. Retrieved 2019/06/18 06:54 UTC (1 hour ago):

KRIC 180654Z 21006KT 10SM SCT190 BKN220 OVC300 23/21 A2997 RMK AO2 SLP152 T02330211

TAF (pilot weather forecast)

Closest forecast is Richmond International Airport, 6.2 nm (11.5 km) ESE. Retrieved 2019/06/18 06:51 UTC (1 hour ago):

TAF KRIC 180548Z 1806/1906 20005KT P6SM BKN250 FM181400 22010KT P6SM SCT050 FM181900 23008KT P6SM VCSH BKN050 FM190000 10005KT 5SM SHRA BR OVC030